Forside
METAR-TAF:

METAR-TAF

Lufthavne :

Independence Municipal Airport

Independence, Iowa, USA

Breddekreds: 42-27N, længdekreds: 091-56W, højde: 298 m

Aktuelle vejr

Denne rapport blev lavet for 13 minutter siden, kl. 12:35 UTC
Vind 18 kt fra sydøst
Temperatur 1°C
Fugtighed 100%
Tryk 1017 hPa
Sigt: 4.8 km
Overskyet i en højde af 600 ft
let sne

METAR: KIIB 241235Z AUTO 13018KT 3SM -SN OVC006 01/01 A3003 RMK AO2 P0006 T00050005

Tid: 06:48 (12:48 UTC)


TAF: fraværende

Vejrobservationer og prognoser fra mere end 4000 lufthavne (METAR og TAF).

De gule og røde prikker repræsenterer de meteorologiske stationer.

Flyt musen over at se navnet på stationen.

Så klik over at se vejr observationer og prognoser.

At skifte det kort: Klik på de grønne knapper med et sort kors for at zoome ind; på den grønne knap med en bindestreg for at zoome ud; eller på de grønne pile for tilstødende kort.


METAR-TAF: